Main page
METAR-TAF:

METAR-TAF

Airports :

Brunei International Airport

Brunei, Brunei

latitude: 04-56N, longitude: 114-56E, elevation: 22 m

Current weather observation

The report was made 23 minutes ago, at 20:00 UTC
Wind 1 kt from the East
Temperature 27°C
Humidity 84%
Pressure 1008 hPa
Visibility: 6000 m
Scattered clouds at a height of 1500 ft
Scattered clouds at a height of 14000 ft
Broken clouds at a height of 28000 ft

METAR: WBSB 182000Z 08001KT 6000 SCT015 SCT140 BKN280 27/24 Q1008 NOSIG

Time: 04:23 (20:23 UTC)

Forecast

The report was made 3 hours and 33 minutes ago, at 16:50 UTC
Forecast valid from 18 at 18 UTC to 20 at 00 UTC
Wind 3 kt from the West/Southwest
Visibility: 7000 m
Few clouds at a height of 1500 ft
Becoming
from 19 at 04 UTC to 19 at 06 UTC
Wind 8 kt from the West/Northwest
Few clouds at a height of 1600 ft
Few clouds at a height of 1700 ft, Cumulonimbus.

TAF: WBSB 181650Z 1818/2000 24003KT 7000 FEW015 BECMG 1904/1906 30008KT FEW016 FEW017CB

Weather observations and forecasts of more than 4000 airports (METAR and TAF reports).

The available stations are represented by yellow and red dots on the map.

Hover mouse over dot to see the name of the station.

Then click to see weather observations and forecasts.

To change the map : click on the green buttons with a black cross to zoom in, on the green button with a dash to zoom out, or on the green arrows for adjacent maps.


METAR-TAF: